Time;durP1;ratioP1;P1;durP2;ratioP2;P2;SDS_P1;SDS_P2;PMS_P1;PMS_P2;Temp;Humidity;BMP_temperature;BMP_pressure;BME280_temperature;BME280_humidity;BME280_pressure;Samples;Min_cycle;Max_cycle;Signal;HPM_P1;HPM_P2
2022/11/14 00:01:07;;;;;;;53.70;25.70;;;;;;;6.38;100.00;101759.13;5082686;27;20039;-83
2022/11/14 00:03:33;;;;;;;57.60;28.47;;;;;;;6.37;100.00;101755.63;5085616;27;20039;-81
2022/11/14 00:06:05;;;;;;;63.23;28.73;;;;;;;6.42;100.00;101758.34;5076121;28;20067;-81
2022/11/14 00:08:31;;;;;;;60.30;28.57;;;;;;;6.45;100.00;101756.63;5100728;27;20548;-82
2022/11/14 00:10:58;;;;;;;62.63;30.37;;;;;;;6.42;100.00;101768.84;5070958;28;20040;-82
2022/11/14 00:13:25;;;;;;;59.00;29.90;;;;;;;6.45;100.00;101766.25;5094714;27;20048;-82
2022/11/14 00:15:54;;;;;;;58.70;30.47;;;;;;;6.38;100.00;101761.75;5079905;28;20485;-82
2022/11/14 00:18:22;;;;;;;61.37;30.03;;;;;;;6.33;100.00;101756.47;5085260;28;20074;-82
2022/11/14 00:20:50;;;;;;;68.17;32.00;;;;;;;6.54;100.00;101753.25;5104319;27;20074;-83
2022/11/14 00:23:18;;;;;;;64.90;30.67;;;;;;;6.46;100.00;101745.25;5100545;28;20047;-83
2022/11/14 00:25:48;;;;;;;67.63;31.50;;;;;;;6.54;100.00;101749.75;5073455;28;20036;-82
2022/11/14 00:28:18;;;;;;;61.90;29.50;;;;;;;6.46;100.00;101741.75;5078136;28;20048;-82
2022/11/14 00:30:46;;;;;;;61.33;30.87;;;;;;;6.55;100.00;101741.00;5077867;27;20138;-83
2022/11/14 00:33:13;;;;;;;77.17;34.43;;;;;;;6.47;100.00;101743.50;5085661;28;20047;-82
2022/11/14 00:35:53;;;;;;;67.87;32.87;;;;;;;6.55;100.00;101746.25;5084948;27;20035;-83
2022/11/14 00:38:20;;;;;;;72.43;33.42;;;;;;;6.48;100.00;101740.94;5089992;28;20047;-83
2022/11/14 00:40:46;;;;;;;68.27;33.97;;;;;;;6.41;100.00;101735.59;5094500;28;20036;-82
2022/11/14 00:43:13;;;;;;;74.20;35.87;;;;;;;6.36;100.00;101729.38;5073889;28;20143;-83
2022/11/14 00:45:43;;;;;;;71.77;33.20;;;;;;;6.30;100.00;101729.28;5107021;28;20040;-82
2022/11/14 00:48:12;;;;;;;76.43;35.23;;;;;;;6.37;100.00;101725.88;5118673;27;20427;-82
2022/11/14 00:50:42;;;;;;;64.77;32.87;;;;;;;6.43;100.00;101718.09;5092148;27;20035;-83
2022/11/14 00:53:09;;;;;;;70.60;32.87;;;;;;;6.45;100.00;101713.75;5096226;27;20039;-82
2022/11/14 00:55:35;;;;;;;76.60;36.10;;;;;;;6.49;100.00;101720.81;5095121;28;20112;-83
2022/11/14 00:58:03;;;;;;;73.20;33.37;;;;;;;6.44;100.00;101717.22;5104020;27;20041;-82
2022/11/14 01:00:29;;;;;;;75.03;35.23;;;;;;;6.52;100.00;101725.22;5098049;28;20074;-82
2022/11/14 01:02:58;;;;;;;69.80;34.10;;;;;;;6.51;100.00;101713.84;5083416;28;20126;-82
2022/11/14 01:05:26;;;;;;;70.97;34.87;;;;;;;6.49;100.00;101715.56;5099176;27;20039;-82
2022/11/14 01:07:53;;;;;;;70.50;33.53;;;;;;;6.44;100.00;101712.00;5077093;28;20036;-82
2022/11/14 01:10:20;;;;;;;73.70;36.57;;;;;;;6.46;100.00;101705.00;5076755;28;20043;-82
2022/11/14 01:12:47;;;;;;;66.27;32.33;;;;;;;6.46;100.00;101705.00;5060928;28;20047;-82
2022/11/14 01:15:14;;;;;;;66.50;32.00;;;;;;;6.52;100.00;101705.09;5084356;28;20054;-83
2022/11/14 01:17:40;;;;;;;77.33;34.93;;;;;;;6.44;100.00;101701.50;5076019;28;20094;-82
2022/11/14 01:20:07;;;;;;;65.60;32.80;;;;;;;6.51;100.00;101697.19;5091321;27;20043;-82
2022/11/14 01:22:37;;;;;;;62.20;31.37;;;;;;;6.43;100.00;101691.84;5083790;28;20032;-83
2022/11/14 01:25:04;;;;;;;71.60;32.53;;;;;;;6.43;100.00;101690.09;5089950;28;20039;-82
2022/11/14 01:27:30;;;;;;;74.37;33.60;;;;;;;6.51;100.00;101692.84;5081642;28;20442;-83
2022/11/14 01:29:57;;;;;;;68.63;33.53;;;;;;;6.53;100.00;101671.84;5103851;27;20035;-81
2022/11/14 01:32:25;;;;;;;69.40;32.27;;;;;;;6.52;100.00;101665.72;5083780;28;20043;-82
2022/11/14 01:34:52;;;;;;;69.20;31.13;;;;;;;6.50;100.00;101662.19;5087920;27;20042;-82
2022/11/14 01:37:19;;;;;;;69.20;34.23;;;;;;;6.54;100.00;101660.47;5100269;27;20039;-82
2022/11/14 01:39:45;;;;;;;70.10;32.53;;;;;;;6.45;100.00;101661.25;5080902;28;20077;-81
2022/11/14 01:42:12;;;;;;;66.13;33.40;;;;;;;6.48;100.00;101661.31;5077063;28;20077;-81
2022/11/14 01:44:51;;;;;;;67.87;34.10;;;;;;;6.54;100.00;101661.34;5097648;27;20031;-81
2022/11/14 01:47:21;;;;;;;67.23;33.50;;;;;;;6.53;100.00;101656.97;5086348;28;20054;-82
2022/11/14 01:49:52;;;;;;;70.73;32.70;;;;;;;6.45;100.00;101648.13;5086988;28;20031;-80
2022/11/14 01:52:30;;;;;;;66.40;32.23;;;;;;;6.39;100.00;101651.56;5087526;28;20093;-82
2022/11/14 01:54:59;;;;;;;65.77;30.50;;;;;;;6.54;100.00;101639.47;5094923;27;20062;-81
2022/11/14 01:57:32;;;;;;;75.03;32.67;;;;;;;6.46;100.00;101634.13;5099515;28;20040;-80
2022/11/14 02:00:05;;;;;;;70.23;33.07;;;;;;;6.47;100.00;101633.25;5122138;27;20039;-81
2022/11/14 02:02:31;;;;;;;73.20;32.47;;;;;;;6.47;100.00;101630.63;5138817;27;20305;-82
2022/11/14 02:05:08;;;;;;;68.73;31.33;;;;;;;6.56;100.00;101627.25;5092936;28;20058;-81
2022/11/14 02:07:37;;;;;;;69.60;31.60;;;;;;;6.59;100.00;101633.44;5084184;28;20489;-80
2022/11/14 02:10:08;;;;;;;63.53;32.47;;;;;;;6.63;100.00;101631.69;5099274;28;20096;-82
2022/11/14 02:12:35;;;;;;;69.87;32.67;;;;;;;6.52;100.00;101618.47;5087205;28;20032;-81
2022/11/14 02:15:02;;;;;;;68.13;32.00;;;;;;;6.49;100.00;101614.06;5097148;28;20043;-81
2022/11/14 02:17:29;;;;;;;66.37;31.70;;;;;;;6.31;100.00;101605.97;5091745;28;20096;-80
2022/11/14 02:20:09;;;;;;;71.07;30.57;;;;;;;6.33;100.00;101595.50;5076493;28;20043;-81
2022/11/14 02:22:38;;;;;;;63.10;29.73;;;;;;;6.28;100.00;101599.78;5092946;28;20036;-81
2022/11/14 02:25:06;;;;;;;69.23;31.17;;;;;;;6.32;100.00;101584.13;5057045;22;20037;-83
2022/11/14 02:27:33;;;;;;;62.50;30.80;;;;;;;6.40;100.00;101582.47;4976948;28;20406;-83
2022/11/14 02:30:09;;;;;;;67.37;31.57;;;;;;;6.44;100.00;101589.50;4973347;28;20044;-81
2022/11/14 02:32:36;;;;;;;67.07;32.57;;;;;;;6.30;100.00;101583.19;4979624;28;20084;-83
2022/11/14 02:35:23;;;;;;;74.57;32.03;;;;;;;6.32;100.00;101581.50;4974478;28;20056;-84
2022/11/14 02:37:49;;;;;;;64.73;31.93;;;;;;;6.28;100.00;101573.56;4980540;28;20042;-85
2022/11/14 02:40:16;;;;;;;72.97;33.20;;;;;;;6.23;100.00;101559.53;4979985;28;20042;-83
2022/11/14 02:42:43;;;;;;;71.97;33.10;;;;;;;6.21;100.00;101562.97;4987997;28;20042;-83
2022/11/14 02:45:10;;;;;;;66.93;32.77;;;;;;;6.37;100.00;101568.41;4983135;28;20502;-85
2022/11/14 02:47:36;;;;;;;62.90;31.13;;;;;;;6.37;100.00;101564.03;4983140;28;20045;-83
2022/11/14 02:50:03;;;;;;;72.80;33.17;;;;;;;6.41;100.00;101560.59;4984058;28;20034;-83
2022/11/14 02:52:30;;;;;;;65.43;32.37;;;;;;;6.36;100.00;101564.91;4997260;28;20404;-84
2022/11/14 02:54:57;;;;;;;74.87;33.83;;;;;;;6.35;100.00;101554.41;5000884;28;20042;-84
2022/11/14 02:57:23;;;;;;;81.83;33.97;;;;;;;6.33;100.00;101559.63;4982737;28;20042;-83
2022/11/14 02:59:50;;;;;;;64.03;32.37;;;;;;;6.40;100.00;101555.34;4984019;28;20057;-83
2022/11/14 03:02:17;;;;;;;76.03;34.90;;;;;;;6.37;100.00;101547.41;4979660;28;20577;-83
2022/11/14 03:04:43;;;;;;;77.33;35.13;;;;;;;6.41;100.00;101552.72;4981202;28;20046;-83
2022/11/14 03:07:10;;;;;;;70.43;31.23;;;;;;;6.44;100.00;101554.50;4998487;28;20589;-83
2022/11/14 03:09:37;;;;;;;72.80;31.87;;;;;;;6.49;100.00;101548.44;4979549;28;20043;-84
2022/11/14 03:12:03;;;;;;;68.27;31.97;;;;;;;6.45;100.00;101541.38;4978265;28;20450;-85
2022/11/14 03:14:30;;;;;;;69.40;30.87;;;;;;;6.41;100.00;101546.59;4996146;28;20042;-85
2022/11/14 03:16:57;;;;;;;70.67;31.40;;;;;;;6.49;100.00;101542.31;4993143;28;20739;-85
2022/11/14 03:19:23;;;;;;;68.43;31.27;;;;;;;6.47;100.00;101539.66;4994971;28;20034;-85
2022/11/14 03:21:50;;;;;;;71.77;33.63;;;;;;;6.54;100.00;101537.09;4994479;28;20034;-85
2022/11/14 03:24:17;;;;;;;74.93;35.63;;;;;;;6.48;100.00;101536.19;4989229;28;20456;-84
2022/11/14 03:26:43;;;;;;;67.67;31.03;;;;;;;6.45;100.00;101536.13;4981370;28;20046;-85
2022/11/14 03:29:10;;;;;;;68.33;31.97;;;;;;;6.47;100.00;101530.88;4992215;28;20088;-85
2022/11/14 03:31:37;;;;;;;70.27;32.77;;;;;;;6.47;100.00;101536.13;4996972;28;20042;-85
2022/11/14 03:34:03;;;;;;;74.30;33.40;;;;;;;6.41;100.00;101538.72;4982057;28;20096;-85
2022/11/14 03:36:30;;;;;;;72.80;31.80;;;;;;;6.47;100.00;101529.19;4996831;28;20049;-84
2022/11/14 03:38:57;;;;;;;75.97;33.43;;;;;;;6.34;100.00;101526.41;5000646;28;20496;-85
2022/11/14 03:41:23;;;;;;;68.37;32.60;;;;;;;6.42;100.00;101524.72;4987673;28;20050;-84
2022/11/14 03:43:50;;;;;;;78.20;33.23;;;;;;;6.46;100.00;101527.38;4996631;28;20553;-84
2022/11/14 03:46:16;;;;;;;72.37;32.97;;;;;;;6.46;100.00;101518.63;4989645;28;20053;-84
2022/11/14 03:48:43;;;;;;;71.20;31.97;;;;;;;6.45;100.00;101519.50;4969670;28;20050;-84
2022/11/14 03:51:09;;;;;;;72.97;32.80;;;;;;;6.47;100.00;101515.13;4976233;28;20139;-84
2022/11/14 03:53:36;;;;;;;73.57;34.47;;;;;;;6.45;100.00;101509.88;4997119;28;20041;-84
2022/11/14 03:56:03;;;;;;;80.13;34.47;;;;;;;6.45;100.00;101498.50;4997742;28;20034;-84
2022/11/14 03:58:30;;;;;;;81.10;34.90;;;;;;;6.42;100.00;101495.84;4977450;28;20047;-84
2022/11/14 04:00:57;;;;;;;73.37;35.27;;;;;;;6.52;100.00;101500.31;4989425;28;20034;-84
2022/11/14 04:03:24;;;;;;;70.57;33.47;;;;;;;6.44;100.00;101502.00;4976489;28;20041;-84
2022/11/14 04:05:51;;;;;;;81.47;35.67;;;;;;;6.46;100.00;101493.25;4976452;28;20053;-85
2022/11/14 04:08:17;;;;;;;80.63;33.20;;;;;;;6.43;100.00;101489.75;4979754;28;20149;-84
2022/11/14 04:10:48;;;;;;;73.13;33.20;;;;;;;6.30;100.00;101493.09;4986486;28;20046;-85
2022/11/14 04:13:14;;;;;;;77.97;36.27;;;;;;;6.24;100.00;101482.56;4991029;28;20042;-84
2022/11/14 04:15:42;;;;;;;76.27;36.13;;;;;;;6.38;100.00;101480.94;4987322;28;20578;-84
2022/11/14 04:18:08;;;;;;;79.37;33.53;;;;;;;6.32;100.00;101486.13;4995309;28;20038;-84
2022/11/14 04:20:35;;;;;;;71.30;33.77;;;;;;;6.30;100.00;101478.22;4977556;28;20135;-84
2022/11/14 04:23:02;;;;;;;76.60;34.60;;;;;;;6.33;100.00;101472.16;4994637;28;20517;-84
2022/11/14 04:25:28;;;;;;;82.57;35.17;;;;;;;6.33;100.00;101473.03;4987692;28;20553;-86
2022/11/14 04:27:55;;;;;;;78.27;34.40;;;;;;;6.26;100.00;101478.19;4989797;28;20495;-84
2022/11/14 04:30:22;;;;;;;85.93;36.87;;;;;;;6.30;100.00;101472.09;4992932;28;20096;-84
2022/11/14 04:32:48;;;;;;;78.87;36.70;;;;;;;6.20;100.00;101472.00;4981712;28;20668;-85
2022/11/14 04:35:15;;;;;;;72.87;34.30;;;;;;;6.24;100.00;101466.81;4979913;28;20046;-84
2022/11/14 04:37:42;;;;;;;79.57;37.23;;;;;;;6.27;100.00;101465.09;4987649;28;20041;-84
2022/11/14 04:40:09;;;;;;;89.00;37.00;;;;;;;6.33;100.00;101469.53;4979395;28;20073;-85
2022/11/14 04:42:35;;;;;;;80.13;35.83;;;;;;;6.27;100.00;101466.84;4990905;28;20046;-85
2022/11/14 04:45:02;;;;;;;77.30;33.33;;;;;;;6.21;100.00;101460.66;4971454;28;20076;-84
2022/11/14 04:47:29;;;;;;;79.03;36.60;;;;;;;6.21;100.00;101454.53;4976464;28;20610;-86
2022/11/14 04:49:55;;;;;;;84.30;36.77;;;;;;;6.16;100.00;101456.25;4988093;28;20034;-85
2022/11/14 04:52:22;;;;;;;86.23;38.40;;;;;;;6.08;100.00;101457.91;5003055;28;20042;-84
2022/11/14 04:54:48;;;;;;;96.50;38.57;;;;;;;6.11;100.00;101452.66;4976622;28;20066;-85
2022/11/14 04:57:16;;;;;;;79.93;33.43;;;;;;;6.11;100.00;101453.56;4977625;28;20042;-85
2022/11/14 04:59:43;;;;;;;86.43;36.97;;;;;;;6.09;100.00;101446.53;4971132;28;20596;-85
2022/11/14 05:02:10;;;;;;;82.23;38.33;;;;;;;6.15;100.00;101438.75;4972306;28;20048;-84
2022/11/14 05:04:36;;;;;;;87.70;35.70;;;;;;;6.11;100.00;101432.56;4971719;28;20037;-85
2022/11/14 05:07:03;;;;;;;81.37;33.43;;;;;;;6.06;100.00;101442.16;4973812;28;20038;-85
2022/11/14 05:09:30;;;;;;;90.07;37.23;;;;;;;6.12;100.00;101438.69;4977479;28;20046;-85
2022/11/14 05:12:03;;;;;;;85.17;36.60;;;;;;;6.07;100.00;101437.78;4975288;28;20057;-85
2022/11/14 05:14:54;;;;;;;85.73;34.70;;;;;;;6.07;100.00;101443.03;4994105;28;20044;-85
2022/11/14 05:17:21;;;;;;;83.57;39.23;;;;;;;6.19;100.00;101437.88;4979341;28;20042;-84
2022/11/14 05:19:47;;;;;;;92.40;35.77;;;;;;;6.18;100.00;101442.25;4979243;28;20450;-85
2022/11/14 05:22:14;;;;;;;86.93;36.27;;;;;;;6.14;100.00;101434.38;4995006;28;20041;-85
2022/11/14 05:24:41;;;;;;;85.80;36.17;;;;;;;6.10;100.00;101438.69;4974286;28;20125;-85
2022/11/14 05:27:07;;;;;;;80.33;37.53;;;;;;;6.17;100.00;101442.25;4977756;28;20640;-85
2022/11/14 05:29:34;;;;;;;82.73;36.67;;;;;;;6.08;100.00;101439.53;4976878;28;20104;-85
2022/11/14 05:32:00;;;;;;;84.40;36.17;;;;;;;6.08;100.00;101429.91;4960778;28;20042;-85
2022/11/14 05:34:27;;;;;;;84.47;37.07;;;;;;;6.09;100.00;101431.69;4989310;28;20030;-86
2022/11/14 05:36:54;;;;;;;84.80;36.90;;;;;;;6.06;100.00;101436.03;4986680;28;20057;-84
2022/11/14 05:39:21;;;;;;;85.83;37.33;;;;;;;5.98;100.00;101428.06;4974051;28;20046;-85
2022/11/14 05:41:47;;;;;;;83.73;36.47;;;;;;;6.03;100.00;101431.59;4974930;28;20034;-84
2022/11/14 05:44:14;;;;;;;76.47;34.77;;;;;;;6.03;100.00;101433.34;4984522;28;20065;-85
2022/11/14 05:46:41;;;;;;;98.17;39.20;;;;;;;6.02;100.00;101429.84;4977109;28;20451;-84
2022/11/14 05:49:07;;;;;;;70.17;34.17;;;;;;;5.93;100.00;101433.25;4990690;28;20041;-84
2022/11/14 05:51:34;;;;;;;81.93;34.77;;;;;;;6.03;100.00;101431.59;4969090;28;20050;-84
2022/11/14 05:54:01;;;;;;;80.63;33.90;;;;;;;6.03;100.00;101428.09;4973819;28;20038;-84
2022/11/14 05:56:27;;;;;;;92.00;35.73;;;;;;;6.02;100.00;101419.34;4991863;28;20080;-83
2022/11/14 05:58:54;;;;;;;80.17;35.20;;;;;;;6.00;100.00;101431.59;4977562;28;20191;-84
2022/11/14 06:01:20;;;;;;;76.33;34.93;;;;;;;6.00;100.00;101434.22;4994803;28;20046;-84
2022/11/14 06:03:47;;;;;;;90.17;35.03;;;;;;;5.90;100.00;101430.63;4977816;28;20402;-84
2022/11/14 06:06:17;;;;;;;74.40;34.00;;;;;;;5.84;100.00;101435.75;4978780;28;20442;-85
2022/11/14 06:08:43;;;;;;;79.37;35.63;;;;;;;5.98;100.00;101429.81;5007180;28;21796;-84
2022/11/14 06:11:16;;;;;;;82.57;35.37;;;;;;;5.95;100.00;101428.03;4970937;28;20065;-85
2022/11/14 06:13:42;;;;;;;89.23;35.90;;;;;;;6.02;100.00;101439.47;4985493;28;20041;-85
2022/11/14 06:16:12;;;;;;;80.30;35.13;;;;;;;5.92;100.00;101436.75;4972836;28;20046;-84
2022/11/14 06:18:39;;;;;;;87.57;35.43;;;;;;;6.04;100.00;101440.34;4973542;28;20553;-84
2022/11/14 06:21:11;;;;;;;76.13;33.37;;;;;;;6.03;100.00;101449.97;4979399;28;20069;-84
2022/11/14 06:23:38;;;;;;;79.93;33.47;;;;;;;5.97;100.00;101452.53;4976768;28;20042;-85
2022/11/14 06:26:07;;;;;;;90.50;35.20;;;;;;;5.87;100.00;101445.38;4970059;28;20491;-84
2022/11/14 06:28:33;;;;;;;84.47;33.80;;;;;;;5.96;100.00;101450.75;4993653;28;20514;-84
2022/11/14 06:31:03;;;;;;;80.77;35.70;;;;;;;5.96;100.00;101455.13;4973661;28;20127;-84
2022/11/14 06:33:34;;;;;;;78.67;33.53;;;;;;;6.01;100.00;101450.81;4977785;28;20081;-84
2022/11/14 06:36:06;;;;;;;73.90;32.83;;;;;;;6.10;100.00;101451.78;4974784;28;20038;-83
2022/11/14 06:38:35;;;;;;;65.10;29.60;;;;;;;6.02;100.00;101450.84;4983060;28;20109;-84
2022/11/14 06:41:06;;;;;;;81.53;31.23;;;;;;;5.98;100.00;101443.81;5010871;28;20502;-84
2022/11/14 06:43:33;;;;;;;77.87;31.73;;;;;;;5.98;100.00;101456.03;4994656;28;20046;-84
2022/11/14 06:46:01;;;;;;;73.43;31.07;;;;;;;5.97;100.00;101452.53;4993947;28;20438;-83
2022/11/14 06:48:28;;;;;;;74.00;32.13;;;;;;;5.91;100.00;101445.47;5006433;28;20038;-84
2022/11/14 06:50:56;;;;;;;76.93;32.47;;;;;;;5.96;100.00;101449.88;4995034;28;20038;-83
2022/11/14 06:53:23;;;;;;;77.80;32.67;;;;;;;6.07;100.00;101448.28;4978459;28;20042;-82
2022/11/14 06:56:15;;;;;;;77.23;33.87;;;;;;;6.04;100.00;101437.72;4990462;28;20104;-82
2022/11/14 06:58:47;;;;;;;77.30;33.77;;;;;;;5.97;100.00;101442.06;4994968;28;20046;-82
2022/11/14 07:01:21;;;;;;;77.47;33.27;;;;;;;6.00;100.00;101442.06;4961155;28;20109;-82
2022/11/14 07:03:48;;;;;;;73.10;31.75;;;;;;;5.92;100.00;101444.63;4974647;28;20042;-83
2022/11/14 07:06:17;;;;;;;71.63;33.23;;;;;;;6.08;100.00;101440.41;4958508;28;20634;-83
2022/11/14 07:08:44;;;;;;;69.30;31.13;;;;;;;6.00;100.00;101433.31;5000395;28;20061;-83
2022/11/14 07:11:21;;;;;;;69.57;32.47;;;;;;;5.92;100.00;101451.59;4994099;28;20042;-84
2022/11/14 07:13:54;;;;;;;73.07;32.93;;;;;;;5.91;100.00;101447.22;5010679;28;20064;-83
2022/11/14 07:16:47;;;;;;;77.00;32.27;;;;;;;5.95;100.00;101443.75;4958710;28;20045;-83
2022/11/14 07:19:14;;;;;;;73.83;33.17;;;;;;;5.87;100.00;101441.00;4992733;28;20050;-83
2022/11/14 07:21:40;;;;;;;79.53;34.83;;;;;;;5.81;100.00;101435.72;4990687;28;20047;-84
2022/11/14 07:24:07;;;;;;;74.50;33.37;;;;;;;6.01;100.00;101432.47;4997241;28;20056;-84
2022/11/14 07:26:34;;;;;;;78.90;35.33;;;;;;;5.92;100.00;101444.63;4991824;28;20153;-83
2022/11/14 07:29:00;;;;;;;80.40;34.60;;;;;;;5.98;100.00;101432.44;4976230;28;20470;-84
2022/11/14 07:31:28;;;;;;;81.27;32.40;;;;;;;5.85;100.00;101434.88;4982004;28;20057;-84
2022/11/14 07:33:55;;;;;;;72.50;32.70;;;;;;;5.84;100.00;101429.63;4996777;28;20030;-84
2022/11/14 07:36:22;;;;;;;82.70;34.37;;;;;;;6.05;100.00;101424.63;4983573;28;20679;-84
2022/11/14 07:38:48;;;;;;;78.43;34.33;;;;;;;6.06;100.00;101415.03;4994736;28;20046;-84
2022/11/14 07:41:15;;;;;;;77.40;33.53;;;;;;;6.03;100.00;101425.47;4990311;28;20100;-84
2022/11/14 07:43:42;;;;;;;75.20;32.87;;;;;;;6.08;100.00;101419.44;5007760;28;20042;-83
2022/11/14 07:46:14;;;;;;;75.47;32.50;;;;;;;6.11;100.00;101424.69;4981532;28;20115;-84
2022/11/14 07:48:41;;;;;;;71.17;33.13;;;;;;;6.20;100.00;101424.78;4997993;28;20092;-84
2022/11/14 07:51:16;;;;;;;78.90;36.47;;;;;;;6.25;100.00;101422.22;4981150;28;20069;-84
2022/11/14 07:53:43;;;;;;;73.33;33.13;;;;;;;6.23;100.00;101415.19;4980825;28;20033;-84
2022/11/14 07:56:10;;;;;;;77.13;35.17;;;;;;;6.31;100.00;101421.41;4977646;28;20038;-82
2022/11/14 07:58:38;;;;;;;76.93;33.33;;;;;;;6.32;100.00;101423.16;4977919;28;20443;-84
2022/11/14 08:01:06;;;;;;;69.80;33.97;;;;;;;6.29;100.00;101417.84;5023833;28;20033;-83
2022/11/14 08:03:33;;;;;;;74.50;32.87;;;;;;;6.31;100.00;101426.66;4981055;28;20132;-84
2022/11/14 08:06:08;;;;;;;73.77;32.87;;;;;;;6.44;100.00;101418.00;4979367;28;20038;-84
2022/11/14 08:08:35;;;;;;;74.13;33.77;;;;;;;6.27;100.00;101424.84;4978111;28;20041;-85
2022/11/14 08:11:02;;;;;;;62.87;31.37;;;;;;;6.35;100.00;101407.44;4979798;28;20045;-84
2022/11/14 08:13:29;;;;;;;71.67;31.47;;;;;;;6.18;100.00;101412.53;4979944;28;20042;-83
2022/11/14 08:16:03;;;;;;;70.50;31.57;;;;;;;6.29;100.00;101410.00;4995226;28;20652;-84
2022/11/14 08:18:37;;;;;;;69.63;31.57;;;;;;;6.34;100.00;101408.28;4997015;28;20041;-84
2022/11/14 08:21:04;;;;;;;68.17;28.60;;;;;;;6.43;100.00;101411.00;4996358;28;20050;-85
2022/11/14 08:23:31;;;;;;;78.37;33.33;;;;;;;6.45;100.00;101409.25;5012690;28;20041;-83
2022/11/14 08:25:58;;;;;;;68.60;30.50;;;;;;;6.46;100.00;101405.75;4961296;28;20470;-83
2022/11/14 08:28:25;;;;;;;68.80;29.97;;;;;;;6.35;100.00;101397.81;4970424;28;20042;-85
2022/11/14 08:30:57;;;;;;;72.37;31.57;;;;;;;6.42;100.00;101394.38;4976400;28;20041;-83
2022/11/14 08:33:24;;;;;;;63.83;28.97;;;;;;;6.46;100.00;101400.50;5001655;28;20030;-85
2022/11/14 08:35:51;;;;;;;66.37;30.07;;;;;;;6.52;100.00;101391.81;4964521;28;20088;-84
2022/11/14 08:38:17;;;;;;;70.67;30.43;;;;;;;6.54;100.00;101401.44;4965324;28;20038;-84
2022/11/14 08:40:44;;;;;;;68.93;29.83;;;;;;;6.63;100.00;101398.00;4985957;28;20041;-84
2022/11/14 08:43:11;;;;;;;57.33;27.10;;;;;;;6.63;100.00;101390.13;4973921;28;20070;-84
2022/11/14 08:45:37;;;;;;;69.90;30.57;;;;;;;6.63;100.00;101392.75;4988970;28;20451;-84
2022/11/14 08:48:04;;;;;;;63.03;31.00;;;;;;;6.59;100.00;101402.38;4968516;28;20065;-84
2022/11/14 08:50:31;;;;;;;65.93;31.17;;;;;;;6.53;100.00;101402.31;4989687;28;20050;-84
2022/11/14 08:52:57;;;;;;;65.43;29.50;;;;;;;6.58;100.00;101398.00;5007210;28;20046;-84
2022/11/14 08:55:24;;;;;;;59.33;31.03;;;;;;;6.65;100.00;101391.94;5009166;28;20129;-84
2022/11/14 08:57:52;;;;;;;62.50;30.83;;;;;;;6.71;100.00;101383.19;4991515;28;20034;-84
2022/11/14 09:00:19;;;;;;;58.97;28.27;;;;;;;6.72;100.00;101391.06;4987377;28;20042;-84
2022/11/14 09:02:45;;;;;;;62.37;29.10;;;;;;;6.68;100.00;101397.19;4992116;28;20480;-83
2022/11/14 09:05:12;;;;;;;64.07;30.07;;;;;;;6.89;100.00;101392.94;4993152;28;20038;-84
2022/11/14 09:07:39;;;;;;;62.57;29.83;;;;;;;6.89;100.00;101387.69;4992286;28;20556;-84
2022/11/14 09:10:06;;;;;;;57.67;29.07;;;;;;;7.00;100.00;101380.78;5080530;22;20492;-79
2022/11/14 09:12:33;;;;;;;63.17;30.83;;;;;;;7.14;100.00;101380.81;5049516;28;20060;-80
2022/11/14 09:14:59;;;;;;;56.23;26.67;;;;;;;7.10;100.00;101385.19;5032318;28;20036;-79
2022/11/14 09:17:26;;;;;;;55.23;27.10;;;;;;;7.32;100.00;101387.06;5051886;28;20051;-79
2022/11/14 09:19:53;;;;;;;53.37;25.50;;;;;;;7.29;100.00;101389.66;5045414;28;20405;-79
2022/11/14 09:22:20;;;;;;;57.27;27.53;;;;;;;7.26;100.00;101389.66;5019915;28;20046;-79
2022/11/14 09:24:48;;;;;;;52.23;25.40;;;;;;;7.28;100.00;101389.66;5012937;28;20045;-79
2022/11/14 09:27:14;;;;;;;51.07;28.30;;;;;;;7.09;100.00;101385.19;5029050;28;20050;-79
2022/11/14 09:29:42;;;;;;;50.70;26.50;;;;;;;6.96;100.00;101385.09;5027046;28;20041;-79
2022/11/14 09:32:09;;;;;;;59.13;27.30;;;;;;;6.91;100.00;101383.34;5016863;28;20462;-79
2022/11/14 09:34:36;;;;;;;54.37;26.27;;;;;;;6.73;100.00;101373.59;5031222;28;20107;-79
2022/11/14 09:37:02;;;;;;;57.70;28.33;;;;;;;6.87;100.00;101376.31;5044585;28;20061;-79
2022/11/14 09:39:29;;;;;;;57.57;27.10;;;;;;;6.88;100.00;101372.81;5032330;28;20501;-80
2022/11/14 09:42:04;;;;;;;56.50;27.07;;;;;;;6.80;100.00;101380.63;5027334;28;20086;-79
2022/11/14 09:44:46;;;;;;;56.90;28.13;;;;;;;6.74;100.00;101380.63;5035809;28;20082;-79
2022/11/14 09:47:16;;;;;;;52.97;27.07;;;;;;;7.02;100.00;101373.78;5025321;28;20049;-80
2022/11/14 09:49:48;;;;;;;60.03;28.70;;;;;;;6.94;100.00;101364.97;5025672;28;20036;-78
2022/11/14 09:52:38;;;;;;;57.50;26.47;;;;;;;6.88;100.00;101357.91;5031450;28;20072;-78
2022/11/14 09:55:31;;;;;;;49.43;26.27;;;;;;;6.96;100.00;101360.59;5046890;28;20083;-79
2022/11/14 09:58:03;;;;;;;60.63;27.67;;;;;;;6.98;100.00;101358.88;5030999;28;20057;-80
2022/11/14 10:00:51;;;;;;;51.77;26.13;;;;;;;6.88;100.00;101362.28;5015395;28;20064;-78
2022/11/14 10:03:23;;;;;;;55.00;26.70;;;;;;;6.92;100.00;101358.84;5015016;28;20071;-79
2022/11/14 10:06:07;;;;;;;58.47;26.87;;;;;;;7.01;100.00;101357.13;5026786;28;20041;-79
2022/11/14 10:08:39;;;;;;;51.03;25.85;;;;;;;6.94;100.00;101355.34;5041574;28;20034;-79
2022/11/14 10:11:18;;;;;;;54.33;25.87;;;;;;;7.08;100.00;101344.03;5032832;28;20061;-81
2022/11/14 10:14:02;;;;;;;57.23;25.70;;;;;;;7.17;100.00;101354.59;5039224;28;20091;-80
2022/11/14 10:16:28;;;;;;;52.27;28.53;;;;;;;6.99;100.00;101352.75;5031217;28;20041;-81
2022/11/14 10:19:49;;;;;;;56.43;25.50;;;;;;;7.22;100.00;101345.81;5044446;28;20408;-80
2022/11/14 10:22:40;;;;;;;50.43;26.60;;;;;;;7.34;100.00;101327.50;5013568;28;20068;-79
2022/11/14 10:25:24;;;;;;;50.47;25.03;;;;;;;7.51;100.00;101318.78;5013168;28;20029;-79
2022/11/14 10:28:22;;;;;;;57.00;25.67;;;;;;;7.75;100.00;101310.94;5036289;28;20049;-79
2022/11/14 10:30:57;;;;;;;52.10;26.10;;;;;;;7.77;100.00;101305.69;5049736;28;20087;-81
2022/11/14 10:34:06;;;;;;;46.93;24.23;;;;;;;8.05;100.00;101309.19;5049181;28;20048;-79
2022/11/14 10:36:49;;;;;;;46.77;24.10;;;;;;;8.25;100.00;101298.69;5046486;28;20095;-79
2022/11/14 10:39:34;;;;;;;45.17;23.97;;;;;;;8.45;100.00;101305.69;5028391;28;20091;-80
2022/11/14 10:42:07;;;;;;;50.03;25.42;;;;;;;8.63;100.00;101302.16;5045144;28;20041;-80
2022/11/14 10:44:42;;;;;;;50.50;23.80;;;;;;;8.45;100.00;101304.81;5027904;28;20029;-80
2022/11/14 10:47:14;;;;;;;41.38;23.60;;;;;;;8.69;100.00;101291.59;5030335;28;20044;-80
2022/11/14 10:49:41;;;;;;;45.40;25.17;;;;;;;8.82;100.00;101299.47;5041991;28;20037;-80
2022/11/14 10:52:17;;;;;;;44.15;25.00;;;;;;;8.74;100.00;101294.22;5033606;28;20090;-81
2022/11/14 10:54:47;;;;;;;44.30;24.75;;;;;;;8.69;100.00;101298.63;5036010;28;20033;-81
2022/11/14 10:57:19;;;;;;;47.75;23.15;;;;;;;8.65;100.00;101288.97;5036134;28;20068;-80
2022/11/14 10:59:47;;;;;;;49.75;25.83;;;;;;;8.23;100.00;101290.75;5035579;28;20084;-81
2022/11/14 11:02:14;;;;;;;45.60;24.95;;;;;;;8.40;100.00;101283.75;5035072;28;20118;-81
2022/11/14 11:04:42;;;;;;;46.45;24.25;;;;;;;8.67;100.00;101276.69;5031472;28;20040;-81
2022/11/14 11:07:08;;;;;;;53.45;26.42;;;;;;;8.67;100.00;101281.97;5035372;28;20033;-80
2022/11/14 11:12:39;;;;;;;52.08;24.05;;;;;;;8.71;100.00;101260.00;5045128;28;20041;-80
2022/11/14 11:15:13;;;;;;;44.92;24.17;;;;;;;9.02;100.00;101250.22;5017172;28;20033;-83
2022/11/14 11:18:20;;;;;;;42.63;23.40;;;;;;;9.08;100.00;101254.56;5010121;28;20571;-80
2022/11/14 11:21:00;;;;;;;42.72;24.40;;;;;;;9.21;100.00;101258.91;5033309;28;20291;-80
2022/11/14 11:23:27;;;;;;;45.67;24.38;;;;;;;9.14;100.00;101259.81;5033293;28;20040;-79